Latest Weather Observations for Coles Point

IDS60801

Issued at 9:31 pm CST Tuesday 1 September 2015 (issued every 30 minutes, with the page automatically refreshed every 10 minutes)

About weather observations | Map of weather stations | Latest weather observations for SA | Other Formats
Station Details ID: 018191 Name: COLES POINT Lat: -34.37 Lon: 135.37 Height: 28.0 m
Data from the previous 72 hours. | See also: Recent months at Coles Point
Date/Time
CST
Temp
°C
App
Temp
°C
Dew
Point
Rel
Hum
%
Delta-T
°C
Wind Press
QNH
hPa
Press
MSL
hPa
Rain
since 9 am
mm
Dir
 
Spd
km/h
Gust
km/h
Spd
kts
Gust
kts
01/09:30pm 12.3 10.4 11.7 96 0.3 WNW 13 19 7 10 1005.1 1005.1 19.4
01/09:00pm 12.0 9.2 11.5 97 0.3 WNW 17 26 9 14 1005.4 1005.4 19.4
01/08:30pm 12.0 6.4 11.5 97 0.3 WNW 32 46 17 25 1005.2 1005.2 18.8
01/08:22pm 12.1 8.0 11.6 97 0.3 NNW 24 46 13 25 1005.6 1005.6 17.0
01/08:00pm 13.4 10.5 12.8 96 0.3 NNW 20 28 11 15 1004.1 1004.1 15.0
01/07:30pm 13.4 9.7 12.8 96 0.3 NNW 24 32 13 17 1004.1 1004.1 14.8
01/07:00pm 13.4 9.1 12.0 91 0.8 NNW 26 43 14 23 1004.5 1004.5 13.2
01/06:54pm 13.5 8.7 11.7 89 1.0 N 28 43 15 23 1004.4 1004.4 13.0
01/06:30pm 13.4 10.4 12.0 91 0.8 NNE 19 20 10 11 1003.3 1003.3 11.8
01/06:00pm 13.6 10.4 11.3 86 1.2 NNE 19 24 10 13 1002.9 1002.9 11.8
01/05:30pm 14.0 10.5 11.0 82 1.6 NNE 20 26 11 14 1002.5 1002.5 11.8
01/05:00pm 14.7 10.2 11.5 81 1.7 NNE 26 33 14 18 1002.5 1002.5 11.8
01/04:30pm 13.7 9.2 11.4 86 1.2 NE 26 35 14 19 1002.8 1002.8 11.8
01/04:00pm 13.3 7.9 10.8 85 1.3 NNE 30 37 16 20 1003.4 1003.4 11.8
01/03:30pm 13.1 9.1 11.8 92 0.7 NNE 24 32 13 17 1003.7 1003.7 11.8
01/03:00pm 12.4 8.4 11.8 96 0.3 NNE 24 30 13 16 1004.4 1004.4 11.6
01/02:30pm 11.9 7.8 11.4 97 0.3 NNE 24 32 13 17 1004.9 1004.9 11.4
01/02:00pm 11.2 5.3 11.0 99 0.1 NNE 33 43 18 23 1005.4 1005.4 11.4
01/01:30pm 11.5 5.8 11.3 99 0.1 NNE 32 43 17 23 1006.5 1006.5 9.6
01/01:00pm 11.9 7.1 11.6 98 0.2 N 28 39 15 21 1007.3 1007.3 7.0
01/12:30pm 12.2 7.9 11.9 98 0.2 NNE 26 33 14 18 1007.1 1007.1 5.0
01/12:00pm 12.2 7.1 11.9 98 0.2 NNE 30 41 16 22 1007.0 1007.0 5.0
01/11:30am 13.2 7.9 12.6 96 0.3 N 32 43 17 23 1008.4 1008.4 2.8
01/11:00am 13.3 7.7 11.5 89 1.0 NNW 32 46 17 25 1008.6 1008.6 0.6
01/10:30am 15.0 8.5 8.9 67 3.1 N 33 48 18 26 1008.4 1008.4 0.0
01/10:00am 15.7 8.2 8.0 60 3.9 N 37 50 20 27 1008.0 1008.0 0.0
01/09:30am 15.2 9.5 8.2 63 3.5 NNE 28 35 15 19 1007.8 1007.8 0.0
01/09:00am 13.2 8.9 9.3 77 2.0 NE 22 28 12 15 1008.3 1008.3 0.2
01/08:30am 11.7 7.8 9.3 85 1.2 NE 20 24 11 13 1008.4 1008.4 0.2
01/08:00am 11.4 6.7 9.1 86 1.1 NE 24 28 13 15 1008.6 1008.6 0.2
01/07:30am 10.8 6.2 9.6 92 0.6 NE 24 28 13 15 1008.6 1008.6 0.2
01/07:00am 10.7 5.8 9.9 95 0.4 NE 26 28 14 15 1008.7 1008.7 0.2
01/06:30am 10.9 6.9 10.6 98 0.2 NNE 22 24 12 13 1009.1 1009.1 0.2
01/06:00am 11.0 8.1 11.0 100 0.0 NE 17 20 9 11 1009.2 1009.2 0.2
01/05:30am 11.2 7.8 11.2 100 0.0 NE 20 22 11 12 1009.7 1009.7 0.2
01/05:00am 11.3 7.9 11.3 100 0.0 NE 20 22 11 12 1009.9 1009.9 0.2
01/04:30am 10.4 7.7 10.4 100 0.0 ENE 15 17 8 9 1010.3 1010.3 0.2
01/04:00am 11.9 12.1 11.9 100 0.0 N 2 6 1 3 1011.2 1011.2 0.2
01/03:30am 12.3 11.9 12.3 100 0.0 W 6 9 3 5 1011.4 1011.4 0.0
01/03:00am 12.3 11.9 12.3 100 0.0 SSW 6 13 3 7 1012.0 1012.0 0.0
01/02:30am 11.9 12.1 11.7 99 0.1 ENE 2 7 1 4 1011.7 1011.7 0.0
01/02:00am 12.1 12.2 11.5 96 0.3 ESE 2 6 1 3 1012.1 1012.1 0.0
01/01:30am 13.7 12.6 13.2 97 0.3 NNE 11 17 6 9 1012.3 1012.3 0.0
01/01:00am 13.9 13.6 13.3 96 0.3 NNW 7 13 4 7 1012.6 1012.6 0.0
01/12:30am 13.7 11.6 13.5 99 0.1 NNW 17 20 9 11 1012.8 1012.8 0.0
01/12:00am 13.2 13.6 12.6 96 0.3 N 2 6 1 3 1013.4 1013.4 0.0
 
Date/Time
CST
Temp
°C
App
Temp
°C
Dew
Point
Rel
Hum
%
Delta-T
°C
Wind Press
QNH
hPa
Press
MSL
hPa
Rain
since 9 am
mm
Dir
 
Spd
km/h
Gust
km/h
Spd
kts
Gust
kts
31/11:30pm 13.3 12.8 12.5 95 0.4 N 7 11 4 6 1013.7 1013.7 0.0
31/11:00pm 12.9 11.4 11.8 93 0.6 N 11 15 6 8 1014.3 1014.4 0.0
31/10:30pm 12.9 11.5 11.0 88 1.0 NNE 9 11 5 6 1014.0 1014.0 0.0
31/10:00pm 13.5 12.6 11.4 87 1.1 N 7 11 4 6 1014.3 1014.4 0.0
31/09:30pm 12.9 10.6 10.4 85 1.3 NNE 13 17 7 9 1014.5 1014.6 0.0
31/09:00pm 12.5 10.1 10.0 85 1.3 NNE 13 15 7 8 1014.5 1014.6 0.0
31/08:30pm 11.9 9.9 10.0 88 1.0 NNE 11 13 6 7 1014.5 1014.6 0.0
31/08:00pm 10.9 8.9 8.7 86 1.1 ENE 9 11 5 6 1014.6 1014.7 0.0
31/07:30pm 12.9 11.8 9.9 82 1.5 WNW 6 7 3 4 1014.6 1014.7 0.0
31/07:00pm 13.5 13.0 9.4 76 2.1 WNW 2 4 1 2 1014.6 1014.7 0.0
31/06:30pm 15.1 14.8 10.1 72 2.6 WNW 2 2 1 1 1014.5 1014.6 0.0
31/06:00pm 15.0 14.7 10.0 72 2.6 WNW 2 4 1 2 1014.4 1014.5 0.0
31/05:30pm 17.7 17.8 10.1 61 4.0 CALM 0 0 0 0 1014.3 1014.4 0.0
31/05:00pm 17.3 17.3 9.7 61 4.0 CALM 0 2 0 1 1014.5 1014.6 0.0
31/04:30pm 17.1 15.6 10.5 65 3.5 NW 9 13 5 7 1014.6 1014.7 0.0
31/04:00pm 16.4 13.5 9.8 65 3.5 NW 15 20 8 11 1014.8 1014.9 0.0
31/03:30pm 16.9 13.0 9.6 62 3.8 NW 20 24 11 13 1014.9 1015.0 0.0
31/03:00pm 16.9 13.0 8.8 59 4.2 WNW 19 24 10 13 1015.2 1015.3 0.0
31/02:30pm 17.5 15.4 8.4 55 4.7 W 9 15 5 8 1015.5 1015.6 0.0
31/02:00pm 18.6 16.6 8.6 52 5.2 NW 9 11 5 6 1015.1 1015.2 0.0
31/01:30pm 18.9 16.5 8.6 51 5.3 NW 11 15 6 8 1015.6 1015.7 0.0
31/01:00pm 19.3 16.4 8.3 49 5.7 NW 13 19 7 10 1016.0 1016.1 0.0
31/12:30pm 19.7 17.1 9.3 51 5.5 N 13 22 7 12 1016.5 1016.6 0.0
31/12:00pm 18.4 14.7 8.1 51 5.3 NE 17 20 9 11 1016.8 1016.9 0.0
31/11:30am 17.5 13.9 8.4 55 4.7 NE 17 20 9 11 1017.2 1017.3 0.0
31/11:00am 16.0 12.6 7.5 57 4.2 ENE 15 19 8 10 1017.9 1018.0 0.0
31/10:30am 14.7 10.5 7.3 61 3.6 ENE 19 24 10 13 1018.0 1018.1 0.0
31/10:00am 13.4 8.7 6.0 61 3.5 NE 20 26 11 14 1018.2 1018.3 0.0
31/09:30am 12.5 7.3 5.4 62 3.3 NE 22 32 12 17 1018.6 1018.6 0.0
31/09:00am 10.3 5.5 4.9 69 2.4 NE 19 24 10 13 1018.8 1018.8 0.2
31/08:30am 9.6 3.8 4.2 69 2.4 NE 24 30 13 16 1018.6 1018.6 0.2
31/08:00am 8.7 2.4 3.7 71 2.2 NE 26 30 14 16 1018.5 1018.5 0.2
31/07:30am 7.7 1.3 3.2 73 1.9 NE 26 30 14 16 1018.4 1018.4 0.2
31/07:00am 7.1 0.7 3.2 76 1.6 NE 26 30 14 16 1018.2 1018.3 0.2
31/06:30am 7.0 0.2 3.1 76 1.6 NE 28 28 15 15 1018.4 1018.4 0.2
31/06:00am 6.6 0.2 3.2 79 1.4 NNE 26 28 14 15 1018.5 1018.5 0.2
31/05:30am 6.6 0.5 2.9 77 1.5 NE 24 28 13 15 1018.5 1018.5 0.2
31/05:00am 6.9 1.3 3.2 77 1.6 NNE 22 26 12 14 1018.5 1018.5 0.2
31/04:30am 7.1 1.4 3.0 75 1.7 NNE 22 28 12 15 1018.5 1018.5 0.2
31/04:00am 7.8 1.8 3.3 73 1.9 NNE 24 28 13 15 1018.5 1018.5 0.2
31/03:30am 7.9 2.3 3.6 74 1.8 NNE 22 26 12 14 1018.8 1018.8 0.2
31/03:00am 7.8 2.6 3.5 74 1.8 NNE 20 26 11 14 1019.2 1019.2 0.2
31/02:30am 7.3 2.1 3.5 77 1.6 NNE 20 24 11 13 1019.3 1019.3 0.2
31/02:00am 7.4 2.3 4.0 79 1.5 NNE 20 24 11 13 1019.7 1019.7 0.2
31/01:30am 7.0 1.9 4.0 81 1.3 NNE 20 22 11 12 1019.9 1019.9 0.2
31/01:00am 7.2 2.3 4.3 82 1.3 NNE 19 22 10 12 1020.4 1020.4 0.2
31/12:30am 7.1 2.3 4.8 85 1.0 NNE 19 20 10 11 1020.6 1020.6 0.2
31/12:00am 7.7 3.1 5.5 86 1.0 NNE 19 22 10 12 1020.8 1020.8 0.2
 
Date/Time
CST
Temp
°C
App
Temp
°C
Dew
Point
Rel
Hum
%
Delta-T
°C
Wind Press
QNH
hPa
Press
MSL
hPa
Rain
since 9 am
mm
Dir
 
Spd
km/h
Gust
km/h
Spd
kts
Gust
kts
30/11:30pm 7.9 3.4 6.0 88 0.9 NNE 19 22 10 12 1021.0 1021.0 0.2
30/11:00pm 8.0 4.0 6.5 90 0.7 NNE 17 19 9 10 1021.2 1021.2 0.2
30/10:30pm 8.1 4.5 6.6 90 0.7 NNE 15 19 8 10 1021.3 1021.3 0.2
30/10:00pm 8.4 4.4 6.5 88 0.9 NNE 17 20 9 11 1021.6 1021.6 0.2
30/09:30pm 8.9 5.0 7.0 88 0.9 NNE 17 19 9 10 1021.9 1021.9 0.2
30/09:00pm 9.6 5.7 7.2 85 1.1 NNE 17 20 9 11 1021.8 1021.8 0.2
30/08:30pm 10.1 6.7 7.7 85 1.1 NNE 15 19 8 10 1021.5 1021.5 0.2
30/08:00pm 10.9 8.7 8.0 82 1.4 N 9 13 5 7 1021.1 1021.1 0.2
30/07:30pm 11.4 8.6 8.6 83 1.4 NE 13 17 7 9 1020.9 1020.9 0.2
30/07:00pm 10.4 8.8 8.0 85 1.2 ENE 6 7 3 4 1021.0 1021.0 0.2
30/06:30pm 11.1 8.4 7.2 77 1.9 SSE 11 15 6 8 1020.7 1020.7 0.2
30/06:00pm 12.9 9.8 7.4 69 2.7 SSE 13 15 7 8 1020.7 1020.7 0.2
30/05:30pm 14.9 12.6 7.5 61 3.7 SSE 9 11 5 6 1020.9 1020.9 0.2
30/05:00pm 15.5 14.3 8.0 61 3.8 SSW 4 11 2 6 1020.9 1020.9 0.2
30/04:30pm 14.8 13.4 9.4 70 2.8 SW 7 11 4 6 1021.2 1021.2 0.2
30/04:00pm 15.8 14.1 8.5 62 3.7 SW 7 9 4 5 1021.2 1021.2 0.2
30/03:30pm 15.9 14.2 8.4 61 3.8 SW 7 9 4 5 1021.2 1021.2 0.2
30/03:00pm 16.2 14.7 9.2 63 3.6 SW 7 11 4 6 1021.5 1021.5 0.2
30/02:30pm 15.8 14.3 9.2 65 3.4 WSW 7 9 4 5 1021.8 1021.8 0.2
30/02:00pm 16.0 14.3 9.7 66 3.3 SW 9 13 5 7 1022.2 1022.2 0.2
30/01:30pm 16.5 14.1 8.7 60 4.0 WNW 11 15 6 8 1022.4 1022.4 0.2
30/01:00pm 16.4 13.3 7.1 54 4.6 NW 13 17 7 9 1022.9 1022.9 0.2
30/12:30pm 16.6 14.7 7.5 55 4.5 NNW 7 13 4 7 1023.3 1023.3 0.2
30/12:00pm 15.9 12.6 8.2 60 3.9 NE 15 19 8 10 1023.7 1023.7 0.0
30/11:30am 15.2 11.4 7.7 61 3.7 NE 17 20 9 11 1024.0 1024.0 0.0
30/11:00am 14.8 11.1 7.8 63 3.5 NE 17 22 9 12 1024.5 1024.5 0.0
30/10:30am 13.9 10.3 8.5 70 2.7 NE 17 20 9 11 1024.8 1024.8 0.0
30/10:00am 12.3 8.1 8.2 76 2.0 NE 20 24 11 13 1024.9 1024.9 0.0
30/09:30am 11.1 7.1 8.3 83 1.4 NNE 19 22 10 12 1024.9 1024.9 0.0
30/09:00am 9.9 5.7 7.5 85 1.1 NNE 19 22 10 12 1024.8 1024.8 0.0
30/08:30am 9.2 5.3 7.2 87 0.9 NE 17 20 9 11 1024.8 1024.8 0.0
30/08:00am 8.2 4.6 6.7 90 0.7 NNE 15 19 8 10 1025.0 1025.0 0.0
30/07:30am 6.6 2.8 5.6 93 0.4 NNE 15 17 8 9 1024.8 1024.8 0.0
30/07:00am 5.7 1.7 4.8 94 0.4 NE 15 17 8 9 1024.6 1024.6 0.0
30/06:30am 5.8 1.8 4.9 94 0.4 NE 15 17 8 9 1024.4 1024.4 0.0
30/06:00am 5.8 1.8 4.8 93 0.4 NE 15 17 8 9 1024.4 1024.4 0.0
30/05:30am 5.9 1.9 4.9 93 0.4 NNE 15 15 8 8 1024.5 1024.5 0.0
30/05:00am 6.0 2.0 5.0 93 0.4 NE 15 17 8 9 1024.5 1024.5 0.0
30/04:30am 6.2 2.2 5.0 92 0.5 NE 15 17 8 9 1024.6 1024.6 0.0
30/04:00am 6.3 2.3 4.9 91 0.6 NE 15 17 8 9 1024.7 1024.7 0.0
30/03:30am 6.5 2.2 5.1 91 0.6 NE 17 19 9 10 1024.8 1024.8 0.0
30/03:00am 6.3 2.2 4.6 89 0.7 NE 15 17 8 9 1025.0 1025.0 0.0
30/02:30am 7.1 3.1 4.9 86 1.0 NE 15 22 8 12 1025.3 1025.3 0.0
30/02:00am 7.7 3.5 5.5 86 1.0 NE 17 20 9 11 1025.7 1025.7 0.0
30/01:30am 6.8 2.8 4.8 87 0.9 NE 15 19 8 10 1026.0 1026.0 0.0
30/01:00am 6.5 2.8 4.7 88 0.8 NE 13 17 7 9 1026.2 1026.2 0.0
30/12:30am 6.4 3.1 4.4 87 0.9 NE 11 13 6 7 1026.4 1026.4 0.0
30/12:00am 6.5 3.6 4.5 87 0.9 NE 9 13 5 7 1026.6 1026.6 0.0
 
Date/Time
CST
Temp
°C
App
Temp
°C
Dew
Point
Rel
Hum
%
Delta-T
°C
Wind Press
QNH
hPa
Press
MSL
hPa
Rain
since 9 am
mm
Dir
 
Spd
km/h
Gust
km/h
Spd
kts
Gust
kts
29/11:30pm 6.8 4.0 5.1 89 0.7 NE 9 13 5 7 1026.9 1026.9 0.0
29/11:00pm 6.4 3.6 5.2 92 0.5 NE 9 13 5 7 1027.1 1027.1 0.0
29/10:30pm 5.9 3.4 4.9 93 0.4 ENE 7 7 4 4 1027.3 1027.3 0.0
29/10:00pm 5.4 2.5 4.4 93 0.4 ENE 9 9 5 5 1027.3 1027.3 0.0

Other Formats:

Comma delimited format used in spreadsheet applications
http://www.bom.gov.au/fwo/IDS60801/IDS60801.94658.axf

JavaScript Object Notation format (JSON) in row-major order
http://www.bom.gov.au/fwo/IDS60801/IDS60801.94658.json